createdAt,value
2018-05-04T00:00:11.344Z,57
2018-05-04T00:00:23.794Z,57
2018-05-04T00:00:36.314Z,57
2018-05-04T00:00:48.754Z,57
2018-05-04T00:01:01.190Z,57
2018-05-04T00:01:13.696Z,57
2018-05-04T00:01:26.104Z,57
2018-05-04T00:01:38.534Z,57
2018-05-04T00:01:50.944Z,57
2018-05-04T00:02:03.435Z,57
2018-05-04T00:02:15.865Z,57
2018-05-04T00:02:28.268Z,57
2018-05-04T00:02:40.700Z,57
2018-05-04T00:02:53.142Z,57
2018-05-04T00:03:05.549Z,57
2018-05-04T00:03:17.949Z,57
2018-05-04T00:03:30.458Z,57
2018-05-04T00:03:43.080Z,57
2018-05-04T00:03:55.507Z,57
2018-05-04T00:04:07.933Z,57
2018-05-04T00:04:20.340Z,57
2018-05-04T00:04:32.762Z,57
2018-05-04T00:04:45.183Z,58
2018-05-04T00:04:57.602Z,58
2018-05-04T00:05:10.016Z,58
2018-05-04T00:05:22.421Z,58
2018-05-04T00:05:34.887Z,58
2018-05-04T00:05:47.312Z,57
2018-05-04T00:05:59.728Z,57
2018-05-04T00:06:12.131Z,57
2018-05-04T00:06:24.555Z,57
2018-05-04T00:06:36.958Z,57
2018-05-04T00:06:49.372Z,57
2018-05-04T00:07:01.771Z,57
2018-05-04T00:07:14.172Z,57
2018-05-04T00:07:26.588Z,58
2018-05-04T00:07:38.993Z,58
2018-05-04T00:07:51.641Z,58
2018-05-04T00:08:04.050Z,58
2018-05-04T00:08:16.470Z,58
2018-05-04T00:08:28.887Z,58
2018-05-04T00:08:41.290Z,58
2018-05-04T00:08:53.719Z,58
2018-05-04T00:09:06.138Z,58
2018-05-04T00:09:18.554Z,58
2018-05-04T00:09:30.963Z,58
2018-05-04T00:09:43.361Z,58
2018-05-04T00:09:55.790Z,58
2018-05-04T00:10:08.216Z,58
2018-05-04T00:10:20.620Z,58
2018-05-04T00:10:33.075Z,58
2018-05-04T00:10:45.526Z,58
2018-05-04T00:10:57.941Z,58
2018-05-04T00:11:10.331Z,58
2018-05-04T00:11:22.991Z,58
2018-05-04T00:11:35.430Z,58
2018-05-04T00:11:47.968Z,58
2018-05-04T00:12:00.390Z,58
2018-05-04T00:12:12.822Z,58
2018-05-04T00:12:25.233Z,58
2018-05-04T00:12:37.634Z,58
2018-05-04T00:12:50.057Z,58
2018-05-04T00:13:02.542Z,58
2018-05-04T00:13:14.962Z,58
2018-05-04T00:13:27.377Z,58
2018-05-04T00:13:39.802Z,58
2018-05-04T00:13:52.209Z,58
2018-05-04T00:14:04.628Z,58
2018-05-04T00:14:17.077Z,57
2018-05-04T00:14:29.488Z,57
2018-05-04T00:14:41.909Z,57
2018-05-04T00:14:54.334Z,57
2018-05-04T00:15:06.738Z,58
2018-05-04T00:15:19.143Z,58
2018-05-04T00:15:31.570Z,58
2018-05-04T00:15:44.007Z,58
2018-05-04T00:15:56.407Z,58
2018-05-04T00:16:08.851Z,58
2018-05-04T00:16:21.271Z,58
2018-05-04T00:16:33.745Z,58
2018-05-04T00:16:46.185Z,58
2018-05-04T00:16:58.685Z,58
2018-05-04T00:17:11.102Z,58
2018-05-04T00:17:23.516Z,58
2018-05-04T00:17:35.932Z,57
2018-05-04T00:17:48.405Z,57
2018-05-04T00:18:00.818Z,57
2018-05-04T00:18:13.265Z,57
2018-05-04T00:18:25.789Z,57
2018-05-04T00:18:38.205Z,57
2018-05-04T00:18:50.608Z,57
2018-05-04T00:19:03.027Z,57
2018-05-04T00:19:15.428Z,57
2018-05-04T00:19:27.816Z,57
2018-05-04T00:19:40.218Z,57
2018-05-04T00:19:52.618Z,57
2018-05-04T00:20:05.021Z,57
2018-05-04T00:20:17.435Z,57
2018-05-04T00:20:29.850Z,57
2018-05-04T00:20:42.264Z,57
2018-05-04T00:20:54.680Z,57
2018-05-04T00:21:07.098Z,57
2018-05-04T00:21:19.510Z,57
2018-05-04T00:21:32.016Z,57
2018-05-04T00:21:44.404Z,57
2018-05-04T00:21:56.824Z,57
2018-05-04T00:22:09.234Z,57
2018-05-04T00:22:21.653Z,57
2018-05-04T00:22:34.074Z,57
2018-05-04T00:22:46.479Z,57
2018-05-04T00:22:58.903Z,57
2018-05-04T00:23:11.311Z,57
2018-05-04T00:23:23.756Z,57
2018-05-04T00:23:36.179Z,57
2018-05-04T00:23:48.595Z,57
2018-05-04T00:24:01.007Z,57
2018-05-04T00:24:13.408Z,57
2018-05-04T00:24:25.837Z,57
2018-05-04T00:24:38.380Z,57
2018-05-04T00:24:50.858Z,57
2018-05-04T00:25:03.279Z,57
2018-05-04T00:25:15.684Z,57
2018-05-04T00:25:28.076Z,57
2018-05-04T00:25:40.476Z,57
2018-05-04T00:25:52.908Z,57
2018-05-04T00:26:05.320Z,58
2018-05-04T00:26:17.720Z,58
2018-05-04T00:26:30.135Z,58
2018-05-04T00:26:42.581Z,58
2018-05-04T00:26:55.031Z,58
2018-05-04T00:27:07.469Z,58
2018-05-04T00:27:19.880Z,58
2018-05-04T00:27:32.279Z,58
2018-05-04T00:27:44.702Z,58
2018-05-04T00:27:57.101Z,58
2018-05-04T00:28:09.514Z,58
2018-05-04T00:28:22.076Z,58
2018-05-04T00:28:34.515Z,58
2018-05-04T00:28:46.926Z,58
2018-05-04T00:28:59.320Z,58
2018-05-04T00:29:11.742Z,58
2018-05-04T00:29:24.140Z,58
2018-05-04T00:29:36.586Z,57
2018-05-04T00:29:49.006Z,57
2018-05-04T00:30:01.403Z,57
2018-05-04T00:30:13.819Z,57
2018-05-04T00:30:26.225Z,58
2018-05-04T00:30:38.632Z,58
2018-05-04T00:30:51.020Z,58
2018-05-04T00:31:03.443Z,58
2018-05-04T00:31:15.903Z,58
2018-05-04T00:31:28.314Z,58
2018-05-04T00:31:40.731Z,58
2018-05-04T00:31:53.167Z,58
2018-05-04T00:32:05.576Z,58
2018-05-04T00:32:18.039Z,58
2018-05-04T00:32:30.459Z,58
2018-05-04T00:32:42.868Z,58
2018-05-04T00:32:55.265Z,58
2018-05-04T00:33:07.671Z,58
2018-05-04T00:33:20.203Z,58
2018-05-04T00:33:32.604Z,58
2018-05-04T00:33:45.015Z,58
2018-05-04T00:33:57.451Z,58
2018-05-04T00:34:09.900Z,58
2018-05-04T00:34:22.445Z,58
2018-05-04T00:34:34.855Z,58
2018-05-04T00:34:47.333Z,58
2018-05-04T00:34:59.731Z,58
2018-05-04T00:35:12.162Z,58
2018-05-04T00:35:24.574Z,58
2018-05-04T00:35:36.974Z,58
2018-05-04T00:35:49.393Z,58
2018-05-04T00:36:01.812Z,58
2018-05-04T00:36:14.248Z,58
2018-05-04T00:36:26.661Z,58
2018-05-04T00:36:39.085Z,58
2018-05-04T00:36:51.510Z,58
2018-05-04T00:37:04.004Z,58
2018-05-04T00:37:16.412Z,58
2018-05-04T00:37:28.819Z,58
2018-05-04T00:37:41.237Z,58
2018-05-04T00:37:53.656Z,58
2018-05-04T00:38:06.058Z,58
2018-05-04T00:38:18.485Z,58
2018-05-04T00:38:30.887Z,58
2018-05-04T00:38:43.327Z,58
2018-05-04T00:38:55.783Z,58
2018-05-04T00:39:08.214Z,58
2018-05-04T00:39:20.673Z,58
2018-05-04T00:39:33.188Z,58
2018-05-04T00:39:45.634Z,58
2018-05-04T00:39:58.045Z,58
2018-05-04T00:40:10.454Z,58
2018-05-04T00:40:22.866Z,58
2018-05-04T00:40:35.266Z,58
2018-05-04T00:40:47.866Z,58
2018-05-04T00:41:00.314Z,58
2018-05-04T00:41:12.787Z,58
2018-05-04T00:41:25.199Z,58
2018-05-04T00:41:37.616Z,58
2018-05-04T00:41:50.020Z,58
2018-05-04T00:42:02.426Z,58
2018-05-04T00:42:14.856Z,58
2018-05-04T00:42:27.367Z,58
2018-05-04T00:42:39.862Z,58
2018-05-04T00:42:52.268Z,58
2018-05-04T00:43:04.705Z,58
2018-05-04T00:43:17.146Z,58
2018-05-04T00:43:29.640Z,58
2018-05-04T00:43:42.036Z,58
2018-05-04T00:43:54.444Z,58
2018-05-04T00:44:06.903Z,58
2018-05-04T00:44:19.331Z,58
2018-05-04T00:44:31.750Z,58
2018-05-04T00:44:44.166Z,58
2018-05-04T00:44:56.570Z,58
2018-05-04T00:45:08.977Z,58
2018-05-04T00:45:21.389Z,58
2018-05-04T00:45:33.807Z,58
2018-05-04T00:45:46.212Z,58
2018-05-04T00:45:58.623Z,58
2018-05-04T00:46:11.045Z,58
2018-05-04T00:46:23.458Z,58
2018-05-04T00:46:35.864Z,58
2018-05-04T00:46:48.269Z,58
2018-05-04T00:47:00.656Z,58
2018-05-04T00:47:13.072Z,58
2018-05-04T00:47:25.461Z,58
2018-05-04T00:47:37.875Z,58
2018-05-04T00:47:50.311Z,58
2018-05-04T00:48:02.709Z,58
2018-05-04T00:48:15.276Z,58
2018-05-04T00:48:27.663Z,58
2018-05-04T00:48:40.081Z,58
2018-05-04T00:48:52.617Z,58
2018-05-04T00:49:05.025Z,58
2018-05-04T00:49:17.430Z,58
2018-05-04T00:49:29.841Z,58
2018-05-04T00:49:42.258Z,58
2018-05-04T00:49:54.680Z,58
2018-05-04T00:50:07.086Z,58
2018-05-04T00:50:19.505Z,58
2018-05-04T00:50:31.923Z,58
2018-05-04T00:50:44.403Z,58
2018-05-04T00:50:56.966Z,58
2018-05-04T00:51:09.387Z,58
2018-05-04T00:51:21.847Z,58
2018-05-04T00:51:34.256Z,58
2018-05-04T00:51:46.642Z,58
2018-05-04T00:51:59.044Z,58
2018-05-04T00:52:11.464Z,58
2018-05-04T00:52:23.906Z,58
2018-05-04T00:52:36.351Z,58
2018-05-04T00:52:48.820Z,58
2018-05-04T00:53:01.215Z,58
2018-05-04T00:53:13.638Z,58
2018-05-04T00:53:26.062Z,58
2018-05-04T00:53:38.476Z,58
2018-05-04T00:53:50.895Z,58
2018-05-04T00:54:03.296Z,58
2018-05-04T00:54:15.699Z,58
2018-05-04T00:54:28.122Z,59
2018-05-04T00:54:40.532Z,59
2018-05-04T00:54:52.940Z,59
2018-05-04T00:55:05.377Z,59
2018-05-04T00:55:17.770Z,59
2018-05-04T00:55:30.239Z,59
2018-05-04T00:55:42.633Z,59
2018-05-04T00:55:55.171Z,59
2018-05-04T00:56:07.571Z,59
2018-05-04T00:56:19.966Z,59
2018-05-04T00:56:32.369Z,59
2018-05-04T00:56:44.786Z,59
2018-05-04T00:56:57.204Z,59
2018-05-04T00:57:09.704Z,59
2018-05-04T00:57:22.117Z,59
2018-05-04T00:57:34.555Z,59
2018-05-04T00:57:46.964Z,59
2018-05-04T00:57:59.365Z,59
2018-05-04T00:58:11.805Z,59
2018-05-04T00:58:24.294Z,59
2018-05-04T00:58:36.688Z,59
2018-05-04T00:58:49.106Z,59
2018-05-04T00:59:01.513Z,59
2018-05-04T00:59:13.920Z,59
2018-05-04T00:59:26.392Z,59
2018-05-04T00:59:38.802Z,59
2018-05-04T00:59:51.194Z,59
2018-05-04T01:00:03.645Z,59
2018-05-04T01:00:16.088Z,59
2018-05-04T01:00:28.535Z,59
2018-05-04T01:00:40.976Z,59
2018-05-04T01:00:53.462Z,59
2018-05-04T01:01:05.924Z,59
2018-05-04T01:01:18.498Z,59
2018-05-04T01:01:30.922Z,59
2018-05-04T01:01:43.324Z,59
2018-05-04T01:01:55.805Z,59
2018-05-04T01:02:08.245Z,59
2018-05-04T01:02:20.692Z,59
2018-05-04T01:02:33.108Z,59
2018-05-04T01:02:45.557Z,59
2018-05-04T01:02:57.987Z,59
2018-05-04T01:03:10.402Z,59
2018-05-04T01:03:22.822Z,59
2018-05-04T01:03:35.249Z,59
2018-05-04T01:03:47.664Z,59
2018-05-04T01:04:00.098Z,59
2018-05-04T01:04:12.635Z,59
2018-05-04T01:04:25.053Z,59
2018-05-04T01:04:37.453Z,60
2018-05-04T01:04:49.944Z,60
2018-05-04T01:05:02.365Z,60
2018-05-04T01:05:14.778Z,60
2018-05-04T01:05:27.201Z,60
2018-05-04T01:05:39.641Z,60
2018-05-04T01:05:52.050Z,60
2018-05-04T01:06:04.471Z,60
2018-05-04T01:06:16.881Z,60
2018-05-04T01:06:29.341Z,60
2018-05-04T01:06:41.746Z,60
2018-05-04T01:06:54.170Z,60
2018-05-04T01:07:06.601Z,60
2018-05-04T01:07:19.038Z,60
2018-05-04T01:07:31.444Z,60
2018-05-04T01:07:43.862Z,60
2018-05-04T01:07:56.270Z,60
2018-05-04T01:08:08.683Z,60
2018-05-04T01:08:21.106Z,60
2018-05-04T01:08:33.529Z,60
2018-05-04T01:08:46.018Z,60
2018-05-04T01:08:58.431Z,60
2018-05-04T01:09:10.864Z,60
2018-05-04T01:09:23.359Z,60
2018-05-04T01:09:35.767Z,60
2018-05-04T01:09:48.169Z,60
2018-05-04T01:10:00.571Z,60
2018-05-04T01:10:12.989Z,60
2018-05-04T01:10:25.384Z,60
2018-05-04T01:10:37.811Z,60
2018-05-04T01:10:50.310Z,60
2018-05-04T01:11:02.720Z,60
2018-05-04T01:11:15.122Z,60
2018-05-04T01:11:27.741Z,60
2018-05-04T01:11:40.191Z,60
2018-05-04T01:11:52.739Z,60
2018-05-04T01:12:05.135Z,60
2018-05-04T01:12:17.551Z,60
2018-05-04T01:12:29.966Z,60
2018-05-04T01:12:42.391Z,60
2018-05-04T01:12:54.874Z,60
2018-05-04T01:13:07.395Z,60
2018-05-04T01:13:19.831Z,60
2018-05-04T01:13:32.248Z,60
2018-05-04T01:13:44.654Z,60
2018-05-04T01:13:57.049Z,60
2018-05-04T01:14:09.460Z,60
2018-05-04T01:14:21.885Z,60
2018-05-04T01:14:34.313Z,60
2018-05-04T01:14:46.728Z,60
2018-05-04T01:14:59.144Z,60
2018-05-04T01:15:11.630Z,60
2018-05-04T01:15:24.027Z,60
2018-05-04T01:15:36.422Z,60
2018-05-04T01:15:48.856Z,61
2018-05-04T01:16:01.260Z,61
2018-05-04T01:16:13.671Z,61
2018-05-04T01:16:26.166Z,61
2018-05-04T01:16:38.583Z,60
2018-05-04T01:16:50.988Z,60
2018-05-04T01:17:03.421Z,60
2018-05-04T01:17:15.837Z,60
2018-05-04T01:17:28.263Z,61
2018-05-04T01:17:40.651Z,61
2018-05-04T01:17:53.031Z,61
2018-05-04T01:18:05.442Z,61
2018-05-04T01:18:17.895Z,61
2018-05-04T01:18:30.475Z,61
2018-05-04T01:18:42.869Z,61
2018-05-04T01:18:55.268Z,61
2018-05-04T01:19:07.668Z,61
2018-05-04T01:19:20.085Z,61
2018-05-04T01:19:32.553Z,61
2018-05-04T01:19:44.958Z,61
2018-05-04T01:19:57.373Z,61
2018-05-04T01:20:09.787Z,61
2018-05-04T01:20:22.206Z,61
2018-05-04T01:20:34.607Z,61
2018-05-04T01:20:47.024Z,62
2018-05-04T01:20:59.435Z,62
2018-05-04T01:21:11.857Z,62
2018-05-04T01:21:24.255Z,62
2018-05-04T01:21:36.774Z,62
2018-05-04T01:21:49.209Z,61
2018-05-04T01:22:01.627Z,61
2018-05-04T01:22:14.047Z,61
2018-05-04T01:22:26.541Z,61
2018-05-04T01:22:38.946Z,61
2018-05-04T01:22:51.348Z,61
2018-05-04T01:23:03.866Z,61
2018-05-04T01:23:16.282Z,61
2018-05-04T01:23:28.697Z,61
2018-05-04T01:23:41.128Z,61
2018-05-04T01:23:53.526Z,61
2018-05-04T01:24:05.932Z,61
2018-05-04T01:24:18.326Z,61
2018-05-04T01:24:30.740Z,61
2018-05-04T01:24:43.332Z,61
2018-05-04T01:24:55.723Z,61
2018-05-04T01:25:08.153Z,61
2018-05-04T01:25:20.570Z,61
2018-05-04T01:25:32.970Z,61
2018-05-04T01:25:45.376Z,61
2018-05-04T01:25:57.796Z,61
2018-05-04T01:26:10.224Z,61
2018-05-04T01:26:22.638Z,61
2018-05-04T01:26:35.043Z,61
2018-05-04T01:26:47.463Z,61
2018-05-04T01:26:59.868Z,61
2018-05-04T01:27:12.273Z,61
2018-05-04T01:27:24.677Z,61
2018-05-04T01:27:37.124Z,61
2018-05-04T01:27:49.558Z,61
2018-05-04T01:28:01.984Z,61
2018-05-04T01:28:14.528Z,61
2018-05-04T01:28:26.926Z,61
2018-05-04T01:28:39.347Z,61
2018-05-04T01:28:51.806Z,61
2018-05-04T01:29:04.309Z,61
2018-05-04T01:29:16.728Z,61
2018-05-04T01:29:29.130Z,61
2018-05-04T01:29:41.545Z,61
2018-05-04T01:29:53.968Z,61
2018-05-04T01:30:06.408Z,61
2018-05-04T01:30:18.806Z,61
2018-05-04T01:30:31.226Z,61
2018-05-04T01:30:43.652Z,61
2018-05-04T01:30:56.089Z,61
2018-05-04T01:31:08.518Z,61
2018-05-04T01:31:20.947Z,61
2018-05-04T01:31:33.359Z,61
2018-05-04T01:31:45.785Z,61
2018-05-04T01:31:58.286Z,61
2018-05-04T01:32:10.700Z,61
2018-05-04T01:32:23.118Z,61
2018-05-04T01:32:35.549Z,61
2018-05-04T01:32:47.962Z,61
2018-05-04T01:33:00.382Z,61
2018-05-04T01:33:12.787Z,61
2018-05-04T01:33:25.230Z,61
2018-05-04T01:33:37.633Z,61
2018-05-04T01:33:50.044Z,61
2018-05-04T01:34:02.479Z,61
2018-05-04T01:34:14.906Z,61
2018-05-04T01:34:27.431Z,61
2018-05-04T01:34:39.839Z,61
2018-05-04T01:34:52.294Z,61
2018-05-04T01:35:04.741Z,61
2018-05-04T01:35:17.144Z,61
2018-05-04T01:35:29.559Z,61
2018-05-04T01:35:41.983Z,61
2018-05-04T01:35:54.398Z,61
2018-05-04T01:36:06.831Z,61
2018-05-04T01:36:19.245Z,62
2018-05-04T01:36:31.649Z,62
2018-05-04T01:36:44.080Z,62
2018-05-04T01:36:56.493Z,62
2018-05-04T01:37:08.922Z,62
2018-05-04T01:37:21.359Z,62
2018-05-04T01:37:33.837Z,62
2018-05-04T01:37:46.237Z,62
2018-05-04T01:37:58.706Z,62
2018-05-04T01:38:11.238Z,62
2018-05-04T01:38:23.654Z,62
2018-05-04T01:38:36.063Z,62
2018-05-04T01:38:48.637Z,62
2018-05-04T01:39:01.055Z,62
2018-05-04T01:39:13.471Z,62
2018-05-04T01:39:25.874Z,62
2018-05-04T01:39:38.321Z,62
2018-05-04T01:39:50.811Z,62
2018-05-04T01:40:03.250Z,62
2018-05-04T01:40:15.691Z,62
2018-05-04T01:40:28.090Z,62
2018-05-04T01:40:40.513Z,62
2018-05-04T01:40:53.199Z,62
2018-05-04T01:41:05.613Z,62
2018-05-04T01:41:18.049Z,62
2018-05-04T01:41:30.458Z,62
2018-05-04T01:41:42.876Z,62
2018-05-04T01:41:55.321Z,62
2018-05-04T01:42:07.723Z,62
2018-05-04T01:42:20.136Z,62
2018-05-04T01:42:32.566Z,62
2018-05-04T01:42:44.967Z,62
2018-05-04T01:42:57.367Z,62
2018-05-04T01:43:09.787Z,62
2018-05-04T01:43:22.188Z,62
2018-05-04T01:43:34.605Z,62
2018-05-04T01:43:47.027Z,62
2018-05-04T01:43:59.448Z,62
2018-05-04T01:44:11.853Z,62
2018-05-04T01:44:24.260Z,62
2018-05-04T01:44:36.675Z,62
2018-05-04T01:44:49.083Z,63
2018-05-04T01:45:01.508Z,63
2018-05-04T01:45:13.938Z,63
2018-05-04T01:45:26.354Z,63
2018-05-04T01:45:38.848Z,62
2018-05-04T01:45:51.290Z,62
2018-05-04T01:46:03.698Z,62
2018-05-04T01:46:16.119Z,62
2018-05-04T01:46:28.532Z,62
2018-05-04T01:46:40.967Z,62
2018-05-04T01:46:53.396Z,62
2018-05-04T01:47:05.821Z,62
2018-05-04T01:47:18.258Z,62
2018-05-04T01:47:30.685Z,62
2018-05-04T01:47:43.112Z,62
2018-05-04T01:47:55.528Z,62
2018-05-04T01:48:07.939Z,62
2018-05-04T01:48:20.444Z,62
2018-05-04T01:48:32.871Z,62
2018-05-04T01:48:45.322Z,62
2018-05-04T01:48:57.757Z,62
2018-05-04T01:49:10.194Z,62
2018-05-04T01:49:22.632Z,62
2018-05-04T01:49:35.067Z,62
2018-05-04T01:49:47.535Z,62
2018-05-04T01:49:59.939Z,62
2018-05-04T01:50:12.386Z,62
2018-05-04T01:50:24.796Z,62
2018-05-04T01:50:37.216Z,62
2018-05-04T01:50:49.612Z,62
2018-05-04T01:51:02.021Z,62
2018-05-04T01:51:14.442Z,62
2018-05-04T01:51:26.864Z,62
2018-05-04T01:51:39.290Z,62
2018-05-04T01:51:51.690Z,62
2018-05-04T01:52:04.097Z,62
2018-05-04T01:52:16.511Z,62
2018-05-04T01:52:28.915Z,63
2018-05-04T01:52:41.321Z,63
2018-05-04T01:52:53.736Z,63
2018-05-04T01:53:06.165Z,63
2018-05-04T01:53:18.622Z,62
2018-05-04T01:53:31.126Z,62
2018-05-04T01:53:43.573Z,62
2018-05-04T01:53:55.993Z,62
2018-05-04T01:54:08.416Z,62
2018-05-04T01:54:20.849Z,62
2018-05-04T01:54:33.282Z,62
2018-05-04T01:54:45.682Z,62
2018-05-04T01:54:58.092Z,62
2018-05-04T01:55:10.505Z,62
2018-05-04T01:55:22.904Z,62
2018-05-04T01:55:35.322Z,62
2018-05-04T01:55:47.803Z,62
2018-05-04T01:56:00.188Z,62
2018-05-04T01:56:12.594Z,62
2018-05-04T01:56:25.057Z,62
2018-05-04T01:56:37.458Z,62
2018-05-04T01:56:49.858Z,62
2018-05-04T01:57:02.269Z,62
2018-05-04T01:57:14.759Z,62
2018-05-04T01:57:27.206Z,62
2018-05-04T01:57:39.616Z,62
2018-05-04T01:57:52.024Z,62
2018-05-04T01:58:04.498Z,62
2018-05-04T01:58:16.975Z,62
2018-05-04T01:58:29.398Z,62
2018-05-04T01:58:41.802Z,62
2018-05-04T01:58:54.396Z,62
2018-05-04T01:59:06.852Z,62
2018-05-04T01:59:19.373Z,62
2018-05-04T01:59:31.779Z,62
2018-05-04T01:59:44.185Z,62
2018-05-04T01:59:56.609Z,62
2018-05-04T02:00:09.024Z,62
2018-05-04T02:00:21.453Z,62
2018-05-04T02:00:33.895Z,62
2018-05-04T02:00:46.363Z,62
2018-05-04T02:00:58.776Z,62
2018-05-04T02:01:11.219Z,62
2018-05-04T02:01:23.667Z,62
2018-05-04T02:01:36.214Z,62
2018-05-04T02:01:48.649Z,62
2018-05-04T02:02:01.082Z,62
2018-05-04T02:02:13.506Z,62
2018-05-04T02:02:25.931Z,62
2018-05-04T02:02:38.386Z,62
2018-05-04T02:02:50.829Z,62
2018-05-04T02:03:03.252Z,62
2018-05-04T02:03:15.753Z,62
2018-05-04T02:03:28.172Z,62
2018-05-04T02:03:40.616Z,62
2018-05-04T02:03:53.027Z,62
2018-05-04T02:04:05.443Z,62
2018-05-04T02:04:17.891Z,62
2018-05-04T02:04:30.344Z,62
2018-05-04T02:04:42.774Z,62
2018-05-04T02:04:55.215Z,62
2018-05-04T02:05:07.635Z,62
2018-05-04T02:05:20.060Z,62
2018-05-04T02:05:32.546Z,62
2018-05-04T02:05:44.948Z,62
2018-05-04T02:05:57.447Z,62
2018-05-04T02:06:09.851Z,62
2018-05-04T02:06:22.276Z,62
2018-05-04T02:06:34.693Z,62
2018-05-04T02:06:47.101Z,62
2018-05-04T02:06:59.594Z,63
2018-05-04T02:07:12.012Z,63
2018-05-04T02:07:24.474Z,63
2018-05-04T02:07:36.867Z,63
2018-05-04T02:07:49.824Z,63
2018-05-04T02:08:02.684Z,63
2018-05-04T02:08:15.109Z,63
2018-05-04T02:08:27.595Z,63
2018-05-04T02:08:40.044Z,62
2018-05-04T02:08:52.460Z,62
2018-05-04T02:09:04.882Z,62
2018-05-04T02:09:17.310Z,62
2018-05-04T02:09:29.745Z,62
2018-05-04T02:09:42.142Z,62
2018-05-04T02:09:54.544Z,62
2018-05-04T02:10:06.960Z,62
2018-05-04T02:10:19.425Z,62
2018-05-04T02:10:31.843Z,62
2018-05-04T02:10:44.258Z,62
2018-05-04T02:10:56.654Z,62
2018-05-04T02:11:09.050Z,62
2018-05-04T02:11:21.626Z,62
2018-05-04T02:11:34.029Z,62
2018-05-04T02:11:46.645Z,62
2018-05-04T02:11:59.058Z,62
2018-05-04T02:12:11.475Z,63
2018-05-04T02:12:23.880Z,63
2018-05-04T02:12:36.373Z,63
2018-05-04T02:12:48.776Z,63
2018-05-04T02:13:01.198Z,63
2018-05-04T02:13:13.613Z,63
2018-05-04T02:13:26.019Z,63
2018-05-04T02:13:38.455Z,63
2018-05-04T02:13:50.887Z,63
2018-05-04T02:14:03.312Z,63
2018-05-04T02:14:15.743Z,63
2018-05-04T02:14:28.183Z,63
2018-05-04T02:14:40.572Z,63
2018-05-04T02:14:52.983Z,63
2018-05-04T02:15:05.481Z,63
2018-05-04T02:15:17.879Z,63
2018-05-04T02:15:30.363Z,63
2018-05-04T02:15:42.779Z,63
2018-05-04T02:15:55.199Z,63
2018-05-04T02:16:07.698Z,63
2018-05-04T02:16:20.121Z,63
2018-05-04T02:16:32.533Z,63
2018-05-04T02:16:44.938Z,63
2018-05-04T02:16:57.394Z,63
2018-05-04T02:17:09.803Z,63
2018-05-04T02:17:22.210Z,63
2018-05-04T02:17:34.682Z,63
2018-05-04T02:17:47.090Z,63
2018-05-04T02:17:59.532Z,63
2018-05-04T02:18:11.964Z,63
2018-05-04T02:18:24.510Z,63
2018-05-04T02:18:36.953Z,63
2018-05-04T02:18:49.367Z,63
2018-05-04T02:19:01.761Z,63
2018-05-04T02:19:14.164Z,63
2018-05-04T02:19:26.572Z,63
2018-05-04T02:19:39.018Z,63
2018-05-04T02:19:51.430Z,63
2018-05-04T02:20:03.837Z,63
2018-05-04T02:20:16.254Z,63
2018-05-04T02:20:28.671Z,63
2018-05-04T02:20:41.083Z,63
2018-05-04T02:20:53.506Z,63
2018-05-04T02:21:05.918Z,63
2018-05-04T02:21:18.312Z,63
2018-05-04T02:21:30.742Z,63
2018-05-04T02:21:43.204Z,63
2018-05-04T02:21:55.611Z,63
2018-05-04T02:22:08.037Z,63
2018-05-04T02:22:20.445Z,63
2018-05-04T02:22:32.850Z,63
2018-05-04T02:22:45.281Z,63
2018-05-04T02:22:57.684Z,63
2018-05-04T02:23:10.152Z,63
2018-05-04T02:23:22.630Z,63
2018-05-04T02:23:35.037Z,63
2018-05-04T02:23:47.435Z,63
2018-05-04T02:23:59.841Z,63
2018-05-04T02:24:12.260Z,63
2018-05-04T02:24:24.663Z,63
2018-05-04T02:24:37.294Z,63
2018-05-04T02:24:49.696Z,63
2018-05-04T02:25:02.106Z,63
2018-05-04T02:25:14.538Z,63
2018-05-04T02:25:26.963Z,63
2018-05-04T02:25:39.397Z,63
2018-05-04T02:25:51.827Z,63
2018-05-04T02:26:04.225Z,63
2018-05-04T02:26:16.636Z,63
2018-05-04T02:26:29.037Z,63
2018-05-04T02:26:41.431Z,63
2018-05-04T02:26:53.863Z,63
2018-05-04T02:27:06.283Z,63
2018-05-04T02:27:18.765Z,63
2018-05-04T02:27:31.280Z,63
2018-05-04T02:27:43.697Z,63
2018-05-04T02:27:56.107Z,63
2018-05-04T02:28:08.530Z,63
2018-05-04T02:28:21.004Z,63
2018-05-04T02:28:33.432Z,63
2018-05-04T02:28:45.851Z,63
2018-05-04T02:28:58.265Z,63
2018-05-04T02:29:10.699Z,63
2018-05-04T02:29:23.147Z,63
2018-05-04T02:29:35.561Z,63
2018-05-04T02:29:47.959Z,63
2018-05-04T02:30:00.369Z,63
2018-05-04T02:30:12.895Z,63
2018-05-04T02:30:25.342Z,63
2018-05-04T02:30:37.774Z,63
2018-05-04T02:30:50.203Z,63
2018-05-04T02:31:02.713Z,63
2018-05-04T02:31:15.137Z,63
2018-05-04T02:31:27.552Z,63
2018-05-04T02:31:39.979Z,63
2018-05-04T02:31:52.434Z,63
2018-05-04T02:32:04.881Z,63
2018-05-04T02:32:17.300Z,63
2018-05-04T02:32:29.800Z,63
2018-05-04T02:32:42.236Z,64
2018-05-04T02:32:54.651Z,64
2018-05-04T02:33:07.102Z,64
2018-05-04T02:33:19.592Z,64
2018-05-04T02:33:32.059Z,64
2018-05-04T02:33:44.662Z,64
2018-05-04T02:33:57.072Z,64
2018-05-04T02:34:09.526Z,64
2018-05-04T02:34:21.950Z,64
2018-05-04T02:34:34.580Z,64
2018-05-04T02:34:47.016Z,64
2018-05-04T02:34:59.492Z,64
2018-05-04T02:35:11.931Z,64
2018-05-04T02:35:24.441Z,64
2018-05-04T02:35:36.894Z,64
2018-05-04T02:35:49.323Z,64
2018-05-04T02:36:01.746Z,64
2018-05-04T02:36:14.183Z,64
2018-05-04T02:36:26.637Z,64
2018-05-04T02:36:39.107Z,64
2018-05-04T02:36:51.567Z,64
2018-05-04T02:37:04.009Z,64
2018-05-04T02:37:16.493Z,64
2018-05-04T02:37:28.962Z,64
2018-05-04T02:37:41.397Z,64
2018-05-04T02:37:53.813Z,64
2018-05-04T02:38:06.247Z,64
2018-05-04T02:38:18.686Z,64
2018-05-04T02:38:31.103Z,64
2018-05-04T02:38:43.535Z,64
2018-05-04T02:38:55.964Z,64
2018-05-04T02:39:08.382Z,64
2018-05-04T02:39:20.853Z,64
2018-05-04T02:39:33.391Z,64
2018-05-04T02:39:45.827Z,64
2018-05-04T02:39:58.249Z,64
2018-05-04T02:40:10.685Z,64
2018-05-04T02:40:23.091Z,64
2018-05-04T02:40:35.507Z,64
2018-05-04T02:40:47.920Z,64
2018-05-04T02:41:00.689Z,64
2018-05-04T02:41:13.118Z,64
2018-05-04T02:41:25.543Z,64
2018-05-04T02:41:37.986Z,64
2018-05-04T02:41:50.442Z,64
2018-05-04T02:42:02.879Z,64
2018-05-04T02:42:15.292Z,64
2018-05-04T02:42:27.725Z,64
2018-05-04T02:42:40.206Z,64
2018-05-04T02:42:52.636Z,64
2018-05-04T02:43:05.093Z,64
2018-05-04T02:43:17.566Z,64
2018-05-04T02:43:29.988Z,64
2018-05-04T02:43:42.439Z,64
2018-05-04T02:43:54.843Z,64
2018-05-04T02:44:07.282Z,64
2018-05-04T02:44:19.735Z,64
2018-05-04T02:44:32.179Z,64
2018-05-04T02:44:44.596Z,64
2018-05-04T02:44:57.023Z,64
2018-05-04T02:45:09.462Z,64
2018-05-04T02:45:21.889Z,64
2018-05-04T02:45:34.328Z,64
2018-05-04T02:45:46.768Z,64
2018-05-04T02:45:59.287Z,64
2018-05-04T02:46:11.721Z,64
2018-05-04T02:46:24.130Z,64
2018-05-04T02:46:36.589Z,64
2018-05-04T02:46:49.033Z,64
2018-05-04T02:47:01.481Z,64
2018-05-04T02:47:13.951Z,64
2018-05-04T02:47:26.379Z,64
2018-05-04T02:47:38.818Z,64
2018-05-04T02:47:51.241Z,64
2018-05-04T02:48:03.702Z,64
2018-05-04T02:48:16.320Z,64
2018-05-04T02:48:28.784Z,64
2018-05-04T02:48:41.226Z,64
2018-05-04T02:48:53.656Z,64
2018-05-04T02:49:06.086Z,64
2018-05-04T02:49:18.576Z,64
2018-05-04T02:49:31.097Z,64
2018-05-04T02:49:43.526Z,64
2018-05-04T02:49:55.966Z,64
2018-05-04T02:50:08.390Z,64
2018-05-04T02:50:20.823Z,64
2018-05-04T02:50:33.287Z,65
2018-05-04T02:50:45.695Z,65
2018-05-04T02:50:58.126Z,65
2018-05-04T02:51:10.559Z,65
2018-05-04T02:51:22.996Z,65
2018-05-04T02:51:35.429Z,65
2018-05-04T02:51:47.860Z,65
2018-05-04T02:52:00.339Z,65
2018-05-04T02:52:12.779Z,65
2018-05-04T02:52:25.213Z,65
2018-05-04T02:52:37.716Z,65
2018-05-04T02:52:50.143Z,65
2018-05-04T02:53:02.591Z,65
2018-05-04T02:53:15.058Z,65
2018-05-04T02:53:27.502Z,65
2018-05-04T02:53:39.984Z,65
2018-05-04T02:53:52.415Z,65
2018-05-04T02:54:04.869Z,65
2018-05-04T02:54:17.355Z,65
2018-05-04T02:54:29.818Z,65
2018-05-04T02:54:42.272Z,65
2018-05-04T02:54:54.690Z,65
2018-05-04T02:55:07.138Z,65
2018-05-04T02:55:19.585Z,65
2018-05-04T02:55:32.884Z,65
2018-05-04T02:55:45.509Z,65
2018-05-04T02:55:57.987Z,65
2018-05-04T02:56:10.465Z,65
2018-05-04T02:56:22.895Z,65
2018-05-04T02:56:35.444Z,65
2018-05-04T02:56:47.876Z,65
2018-05-04T02:57:00.332Z,65
2018-05-04T02:57:12.786Z,65
2018-05-04T02:57:25.248Z,65